IN-0091 weather

saharsa airstrip
Bihar, India

Public forecast

Using degrees Celsius for public forecast. Weather courtesy of forecast.io.

METAR (pilot weather report)

Closest report is Lok Nayak Jayaprakash Airport, 82.8 nm (153.4 km) WSW. Retrieved 2019/04/23 18:30 UTC (1 hour ago):

VEPT 231830Z 08007KT 4000 HZ FEW100 28/20 Q1008 NOSIG

TAF (pilot weather forecast)

Forecast is more than 6 hours old.

Closest forecast is Lok Nayak Jayaprakash Airport, 82.8 nm (153.4 km) WSW. Retrieved 2019/04/23 12:39 UTC (7 hours ago):

TAF VEPT 231100Z 2312/2418 08010KT 5000 HZ SCT020 SCT100 BECMG 2315/2317 10006KT 4000 HZ SCT100 BECMG 2400/2402 09003KT 3000 HZ FEW100 BECMG 2404/2406 08006KT 4000 HZ SCT020 SCT100 BECMG 2409/2411 10012KT 5000 HZ BECMG 2415/2417 09005KT 4000 HZ SCT100